createdAt,value
2022-10-10T00:01:39.968Z,3.42
2022-10-10T00:04:06.396Z,3.40
2022-10-10T00:06:33.673Z,3.41
2022-10-10T00:09:00.744Z,3.36
2022-10-10T00:11:27.108Z,3.33
2022-10-10T00:13:53.540Z,3.36
2022-10-10T00:16:20.429Z,3.45
2022-10-10T00:18:47.095Z,3.51
2022-10-10T00:21:13.628Z,3.54
2022-10-10T00:23:40.054Z,3.50
2022-10-10T00:26:09.038Z,3.44
2022-10-10T00:28:38.710Z,3.41
2022-10-10T00:31:09.209Z,3.46
2022-10-10T00:33:35.962Z,3.42
2022-10-10T00:36:04.194Z,3.39
2022-10-10T00:38:31.809Z,3.43
2022-10-10T00:40:58.448Z,3.45
2022-10-10T00:43:25.750Z,3.47
2022-10-10T00:45:52.914Z,3.47
2022-10-10T00:48:27.839Z,3.42
2022-10-10T00:50:59.004Z,3.39
2022-10-10T00:53:45.729Z,3.36
2022-10-10T00:56:13.161Z,3.37
2022-10-10T00:58:45.209Z,3.37
2022-10-10T01:01:11.635Z,3.40
2022-10-10T01:03:38.194Z,3.44
2022-10-10T01:06:05.302Z,3.39
2022-10-10T01:08:32.054Z,3.34
2022-10-10T01:11:01.247Z,3.31
2022-10-10T01:13:30.629Z,3.27
2022-10-10T01:16:00.920Z,3.24
2022-10-10T01:18:30.437Z,3.26
2022-10-10T01:20:56.788Z,3.29
2022-10-10T01:23:36.222Z,3.28
2022-10-10T01:26:08.542Z,3.28
2022-10-10T01:28:38.002Z,3.29
2022-10-10T01:31:06.424Z,3.30
2022-10-10T01:33:38.618Z,3.34
2022-10-10T01:36:12.767Z,3.36
2022-10-10T01:38:45.955Z,3.37
2022-10-10T01:41:27.453Z,3.31
2022-10-10T01:43:57.673Z,3.28
2022-10-10T01:46:24.617Z,3.35
2022-10-10T01:48:52.488Z,3.37
2022-10-10T01:51:45.390Z,3.38
2022-10-10T01:54:11.756Z,3.35
2022-10-10T01:56:47.873Z,3.29
2022-10-10T01:59:21.375Z,3.26
2022-10-10T02:01:50.553Z,3.31
2022-10-10T02:04:28.456Z,3.33
2022-10-10T02:06:57.520Z,3.27
2022-10-10T02:09:31.280Z,3.23
2022-10-10T02:11:59.126Z,3.23
2022-10-10T02:14:29.297Z,3.27
2022-10-10T02:16:57.901Z,3.30
2022-10-10T02:19:25.477Z,3.29
2022-10-10T02:21:53.079Z,3.24
2022-10-10T02:24:21.327Z,3.23
2022-10-10T02:26:52.797Z,3.29
2022-10-10T02:29:28.889Z,3.27
2022-10-10T02:32:14.135Z,3.28
2022-10-10T02:34:43.108Z,3.29
2022-10-10T02:37:12.577Z,3.30
2022-10-10T02:39:43.632Z,3.31
2022-10-10T02:42:12.007Z,3.37
2022-10-10T02:44:39.004Z,3.39
2022-10-10T02:47:05.777Z,3.41
2022-10-10T02:49:33.792Z,3.40
2022-10-10T02:52:00.306Z,3.35
2022-10-10T02:54:26.960Z,3.33
2022-10-10T02:56:53.694Z,3.38
2022-10-10T02:59:20.078Z,3.37
2022-10-10T03:01:46.848Z,3.37
2022-10-10T03:04:13.519Z,3.41
2022-10-10T03:06:39.908Z,3.38
2022-10-10T03:09:06.313Z,3.37
2022-10-10T03:11:32.776Z,3.38
2022-10-10T03:13:59.198Z,3.39
2022-10-10T03:16:25.588Z,3.39
2022-10-10T03:18:51.951Z,3.37
2022-10-10T03:21:18.524Z,3.38
2022-10-10T03:23:44.885Z,3.35
2022-10-10T03:26:11.268Z,3.38
2022-10-10T03:28:37.890Z,3.39
2022-10-10T03:31:04.605Z,3.39
2022-10-10T03:33:30.990Z,3.35
2022-10-10T03:35:57.349Z,3.36
2022-10-10T03:38:23.753Z,3.38
2022-10-10T03:40:50.179Z,3.39
2022-10-10T03:43:16.555Z,3.41
2022-10-10T03:45:44.057Z,3.41
2022-10-10T03:48:10.800Z,3.42
2022-10-10T03:50:37.670Z,3.42
2022-10-10T03:53:04.318Z,3.42
2022-10-10T03:55:30.675Z,3.39
2022-10-10T03:57:57.154Z,3.38
2022-10-10T04:00:23.531Z,3.39
2022-10-10T04:02:50.176Z,3.41
2022-10-10T04:05:16.768Z,3.45
2022-10-10T04:07:43.146Z,3.49
2022-10-10T04:10:09.982Z,3.52
2022-10-10T04:12:36.420Z,3.55
2022-10-10T04:15:02.928Z,3.53
2022-10-10T04:17:29.297Z,3.53
2022-10-10T04:19:55.646Z,3.53
2022-10-10T04:22:22.010Z,3.55
2022-10-10T04:24:48.481Z,3.57
2022-10-10T04:27:14.870Z,3.60
2022-10-10T04:29:41.458Z,3.59
2022-10-10T04:32:08.002Z,3.58
2022-10-10T04:34:34.382Z,3.62
2022-10-10T04:37:00.769Z,3.62
2022-10-10T04:39:27.170Z,3.57
2022-10-10T04:41:53.526Z,3.54
2022-10-10T04:44:19.910Z,3.52
2022-10-10T04:46:46.395Z,3.50
2022-10-10T04:49:12.810Z,3.54
2022-10-10T04:51:39.183Z,3.55
2022-10-10T04:54:05.619Z,3.58
2022-10-10T04:56:32.059Z,3.59
2022-10-10T04:58:58.423Z,3.57
2022-10-10T05:01:24.833Z,3.54
2022-10-10T05:03:51.222Z,3.53
2022-10-10T05:06:17.578Z,3.52
2022-10-10T05:08:43.936Z,3.45
2022-10-10T05:11:10.296Z,3.44
2022-10-10T05:13:36.690Z,3.42
2022-10-10T05:16:03.144Z,3.39
2022-10-10T05:18:29.535Z,3.43
2022-10-10T05:20:58.721Z,3.45
2022-10-10T05:23:29.019Z,3.51
2022-10-10T05:25:55.374Z,3.54
2022-10-10T05:28:21.792Z,3.51
2022-10-10T05:30:48.189Z,3.55
2022-10-10T05:33:14.538Z,3.56
2022-10-10T05:35:40.953Z,3.54
2022-10-10T05:38:07.399Z,3.55
2022-10-10T05:40:33.871Z,3.52
2022-10-10T05:43:00.248Z,3.47
2022-10-10T05:45:26.607Z,3.45
2022-10-10T05:47:52.989Z,3.40
2022-10-10T05:50:25.262Z,3.38
2022-10-10T05:52:51.988Z,3.42
2022-10-10T05:55:18.506Z,3.45
2022-10-10T05:57:44.871Z,3.48
2022-10-10T06:00:11.529Z,3.51
2022-10-10T06:02:37.927Z,3.55
2022-10-10T06:05:04.789Z,3.60
2022-10-10T06:07:51.811Z,3.60
2022-10-10T06:10:17.530Z,3.59
2022-10-10T06:12:43.889Z,3.62
2022-10-10T06:15:10.549Z,3.62
2022-10-10T06:17:36.919Z,3.63
2022-10-10T06:20:03.880Z,3.62
2022-10-10T06:22:30.278Z,3.61
2022-10-10T06:24:56.671Z,3.64
2022-10-10T06:27:23.321Z,3.69
2022-10-10T06:29:49.705Z,3.66
2022-10-10T06:32:16.101Z,3.60
2022-10-10T06:34:42.478Z,3.49
2022-10-10T06:37:08.885Z,3.52
2022-10-10T06:39:35.246Z,3.58
2022-10-10T06:42:01.647Z,3.63
2022-10-10T06:44:28.011Z,3.59
2022-10-10T06:46:54.370Z,3.59
2022-10-10T06:49:20.738Z,3.56
2022-10-10T06:51:47.516Z,3.44
2022-10-10T06:54:13.888Z,3.38
2022-10-10T06:56:40.328Z,3.36
2022-10-10T06:59:06.706Z,3.30
2022-10-10T07:01:33.119Z,3.38
2022-10-10T07:03:59.567Z,3.37
2022-10-10T07:06:26.226Z,3.29
2022-10-10T07:08:52.584Z,3.19
2022-10-10T07:11:18.970Z,3.16
2022-10-10T07:13:45.356Z,3.15
2022-10-10T07:16:11.867Z,3.22
2022-10-10T07:18:38.328Z,3.22
2022-10-10T07:21:04.956Z,3.27
2022-10-10T07:23:32.872Z,3.38
2022-10-10T07:26:00.825Z,3.48
2022-10-10T07:28:27.924Z,3.48
2022-10-10T07:30:59.292Z,3.40
2022-10-10T07:33:25.678Z,3.40
2022-10-10T07:35:55.170Z,3.38
2022-10-10T07:38:21.531Z,3.42
2022-10-10T07:40:47.906Z,3.45
2022-10-10T07:43:14.538Z,3.44
2022-10-10T07:45:40.917Z,3.42
2022-10-10T07:48:07.304Z,3.48
2022-10-10T07:50:33.694Z,3.58
2022-10-10T07:53:00.112Z,3.65
2022-10-10T07:55:26.844Z,3.67
2022-10-10T07:57:53.542Z,3.77
2022-10-10T08:00:20.217Z,3.90
2022-10-10T08:02:46.704Z,4.02
2022-10-10T08:05:13.118Z,4.12
2022-10-10T08:07:39.504Z,4.06
2022-10-10T08:10:06.643Z,4.06
2022-10-10T08:12:33.070Z,4.10
2022-10-10T08:15:00.831Z,4.16
2022-10-10T08:17:27.288Z,4.24
2022-10-10T08:19:53.745Z,4.39
2022-10-10T08:22:20.127Z,4.52
2022-10-10T08:24:46.472Z,4.65
2022-10-10T08:27:14.588Z,4.75
2022-10-10T08:29:40.950Z,4.86
2022-10-10T08:32:07.308Z,4.96
2022-10-10T08:34:33.728Z,5.02
2022-10-10T08:37:00.111Z,5.05
2022-10-10T08:39:26.536Z,5.14
2022-10-10T08:41:56.636Z,5.26
2022-10-10T08:44:43.690Z,5.39
2022-10-10T08:47:10.208Z,5.52
2022-10-10T08:49:42.585Z,5.61
2022-10-10T08:52:29.280Z,5.70
2022-10-10T08:54:58.667Z,5.80
2022-10-10T08:57:27.148Z,5.89
2022-10-10T08:59:56.442Z,5.99
2022-10-10T09:02:38.293Z,6.08
2022-10-10T09:05:17.864Z,6.23
2022-10-10T09:07:44.331Z,6.35
2022-10-10T09:10:35.993Z,6.48
2022-10-10T09:13:09.560Z,6.60
2022-10-10T09:15:45.752Z,6.71
2022-10-10T09:18:20.999Z,6.82
2022-10-10T09:20:53.334Z,7.01
2022-10-10T09:23:35.083Z,7.13
2022-10-10T09:26:11.005Z,7.29
2022-10-10T09:28:46.989Z,7.46
2022-10-10T09:31:22.400Z,7.62
2022-10-10T09:33:53.768Z,7.77
2022-10-10T09:36:23.736Z,7.90
2022-10-10T09:38:52.916Z,8.01
2022-10-10T09:41:25.420Z,8.13
2022-10-10T09:44:05.041Z,8.37
2022-10-10T09:46:31.399Z,8.68
2022-10-10T09:48:57.990Z,8.90
2022-10-10T09:51:24.367Z,9.02
2022-10-10T09:53:50.931Z,9.12
2022-10-10T09:56:25.681Z,9.21
2022-10-10T09:58:53.244Z,9.34
2022-10-10T10:01:21.238Z,9.52
2022-10-10T10:04:17.319Z,9.66
2022-10-10T10:07:03.247Z,9.87
2022-10-10T10:09:29.683Z,10.04
2022-10-10T10:11:56.940Z,10.14
2022-10-10T10:14:29.231Z,10.26
2022-10-10T10:17:04.833Z,10.39
2022-10-10T10:19:41.860Z,10.54
2022-10-10T10:22:27.221Z,10.71
2022-10-10T10:24:54.089Z,10.88
2022-10-10T10:27:22.562Z,11.17
2022-10-10T10:29:50.853Z,11.30
2022-10-10T10:32:24.893Z,11.47
2022-10-10T10:34:53.993Z,11.64
2022-10-10T10:37:20.453Z,12.00
2022-10-10T10:39:46.781Z,12.22
2022-10-10T10:42:41.983Z,12.36
2022-10-10T10:45:14.405Z,12.42
2022-10-10T10:47:43.973Z,12.57
2022-10-10T10:50:10.310Z,12.68
2022-10-10T10:52:39.755Z,12.79
2022-10-10T10:55:14.682Z,12.91
2022-10-10T10:58:00.087Z,13.04
2022-10-10T11:03:38.491Z,13.30
2022-10-10T11:06:20.986Z,13.36
2022-10-10T11:08:57.681Z,13.42
2022-10-10T11:11:30.093Z,13.51
2022-10-10T11:14:10.057Z,13.58
2022-10-10T11:16:58.883Z,13.68
2022-10-10T11:19:28.040Z,13.79
2022-10-10T11:22:00.742Z,13.83
2022-10-10T11:24:47.420Z,13.89
2022-10-10T11:27:20.040Z,13.96
2022-10-10T11:29:49.217Z,14.03
2022-10-10T11:34:51.911Z,14.21
2022-10-10T11:37:20.915Z,14.26
2022-10-10T11:39:58.715Z,14.34
2022-10-10T11:42:47.892Z,14.41
2022-10-10T11:45:16.075Z,14.51
2022-10-10T11:48:00.800Z,14.59
2022-10-10T11:50:34.709Z,14.66
2022-10-10T11:53:10.384Z,14.70
2022-10-10T11:55:41.117Z,14.76
2022-10-10T11:58:07.515Z,14.83
2022-10-10T12:00:35.906Z,14.88
2022-10-10T12:03:02.314Z,14.91
2022-10-10T12:05:29.974Z,14.98
2022-10-10T12:07:56.357Z,15.05
2022-10-10T12:10:25.735Z,15.11
2022-10-10T12:12:55.015Z,15.18
2022-10-10T12:15:37.245Z,15.24
2022-10-10T12:18:06.589Z,15.25
2022-10-10T12:20:36.368Z,15.23
2022-10-10T12:23:10.212Z,15.26
2022-10-10T12:25:42.172Z,15.30
2022-10-10T12:28:14.437Z,15.32
2022-10-10T12:30:57.721Z,15.40
2022-10-10T12:33:33.916Z,15.50
2022-10-10T12:36:21.770Z,15.56
2022-10-10T12:39:05.859Z,15.60
2022-10-10T12:41:47.779Z,15.63
2022-10-10T12:44:32.824Z,15.66
2022-10-10T12:47:14.548Z,15.64
2022-10-10T12:49:55.055Z,15.71
2022-10-10T12:52:21.400Z,15.67
2022-10-10T12:54:48.679Z,15.61
2022-10-10T12:57:28.251Z,15.59
2022-10-10T12:59:57.645Z,15.58
2022-10-10T13:02:27.965Z,15.55
2022-10-10T13:04:56.204Z,15.57
2022-10-10T13:07:23.106Z,15.64
2022-10-10T13:09:51.223Z,15.78
2022-10-10T13:12:28.613Z,15.93
2022-10-10T13:14:55.527Z,16.00
2022-10-10T13:17:28.070Z,16.06
2022-10-10T13:19:55.886Z,16.03
2022-10-10T13:22:22.635Z,15.98
2022-10-10T13:24:50.376Z,15.99
2022-10-10T13:27:27.670Z,16.01
2022-10-10T13:29:54.716Z,16.02
2022-10-10T13:32:23.240Z,16.07
2022-10-10T13:34:52.187Z,16.09
2022-10-10T13:37:19.582Z,16.05
2022-10-10T13:39:47.687Z,16.00
2022-10-10T13:42:26.222Z,16.01
2022-10-10T13:44:54.167Z,15.97
2022-10-10T13:47:35.868Z,15.95
2022-10-10T13:50:03.804Z,16.00
2022-10-10T13:52:30.166Z,16.00
2022-10-10T13:55:13.731Z,16.01
2022-10-10T13:57:40.307Z,16.02
2022-10-10T14:00:14.210Z,15.96
2022-10-10T14:02:41.556Z,15.91
2022-10-10T14:05:09.326Z,15.87
2022-10-10T14:07:36.427Z,15.84
2022-10-10T14:10:10.388Z,15.84
2022-10-10T14:12:48.827Z,15.85
2022-10-10T14:15:33.454Z,15.80
2022-10-10T14:17:59.822Z,15.77
2022-10-10T14:20:26.186Z,15.77
2022-10-10T14:22:52.566Z,15.73
2022-10-10T14:25:18.962Z,15.67
2022-10-10T14:27:45.414Z,15.61
2022-10-10T14:30:14.326Z,15.63
2022-10-10T14:32:40.746Z,15.61
2022-10-10T14:35:07.220Z,15.62
2022-10-10T14:37:34.220Z,15.63
2022-10-10T14:40:00.716Z,15.58
2022-10-10T14:42:27.084Z,15.49
2022-10-10T14:44:53.467Z,15.44
2022-10-10T14:47:21.426Z,15.43
2022-10-10T14:49:48.097Z,15.41
2022-10-10T14:52:14.838Z,15.38
2022-10-10T14:54:41.237Z,15.26
2022-10-10T14:57:10.143Z,15.18
2022-10-10T14:59:47.285Z,15.16
2022-10-10T15:02:15.121Z,15.09
2022-10-10T15:04:41.504Z,15.01
2022-10-10T15:07:13.343Z,14.87
2022-10-10T15:09:47.450Z,14.78
2022-10-10T15:12:23.182Z,14.64
2022-10-10T15:14:49.580Z,14.50
2022-10-10T15:17:15.950Z,14.36
2022-10-10T15:19:42.336Z,14.19
2022-10-10T15:22:08.720Z,14.10
2022-10-10T15:24:35.172Z,13.92
2022-10-10T15:27:01.564Z,13.77
2022-10-10T15:29:28.020Z,13.61
2022-10-10T15:31:54.401Z,13.46
2022-10-10T15:34:21.144Z,13.28
2022-10-10T15:36:47.511Z,13.15
2022-10-10T15:39:13.878Z,13.03
2022-10-10T15:41:40.345Z,12.92
2022-10-10T15:44:12.321Z,12.80
2022-10-10T15:46:39.584Z,12.70
2022-10-10T15:49:06.071Z,12.55
2022-10-10T15:51:32.452Z,12.41
2022-10-10T15:53:59.251Z,12.27
2022-10-10T15:56:26.248Z,12.17
2022-10-10T15:58:56.614Z,12.08
2022-10-10T16:01:23.553Z,11.98
2022-10-10T16:03:50.048Z,11.84
2022-10-10T16:06:17.982Z,11.79
2022-10-10T16:08:44.641Z,11.77
2022-10-10T16:11:12.009Z,11.70
2022-10-10T16:13:39.388Z,11.62
2022-10-10T16:16:06.775Z,11.52
2022-10-10T16:18:37.893Z,11.43
2022-10-10T16:21:07.204Z,11.29
2022-10-10T16:23:33.812Z,11.16
2022-10-10T16:26:07.537Z,11.00
2022-10-10T16:28:34.479Z,10.92
2022-10-10T16:31:01.890Z,10.85
2022-10-10T16:33:28.423Z,10.74
2022-10-10T16:35:54.798Z,10.62
2022-10-10T16:38:21.258Z,10.48
2022-10-10T16:40:47.661Z,10.35
2022-10-10T16:43:14.153Z,10.28
2022-10-10T16:45:41.332Z,10.16
2022-10-10T16:48:07.702Z,10.09
2022-10-10T16:50:34.085Z,10.03
2022-10-10T16:53:03.062Z,9.97
2022-10-10T16:55:29.414Z,9.94
2022-10-10T16:57:59.146Z,9.88
2022-10-10T17:00:25.571Z,9.79
2022-10-10T17:02:51.998Z,9.68
2022-10-10T17:05:18.350Z,9.65
2022-10-10T17:07:44.717Z,9.64
2022-10-10T17:10:11.130Z,9.59
2022-10-10T17:12:37.567Z,9.49
2022-10-10T17:15:04.437Z,9.41
2022-10-10T17:17:30.810Z,9.31
2022-10-10T17:19:57.161Z,9.23
2022-10-10T17:22:23.586Z,9.22
2022-10-10T17:24:49.950Z,9.22
2022-10-10T17:27:16.315Z,9.21
2022-10-10T17:29:42.682Z,9.17
2022-10-10T17:32:09.066Z,9.09
2022-10-10T17:34:35.443Z,8.98
2022-10-10T17:37:02.150Z,8.91
2022-10-10T17:39:28.553Z,8.87
2022-10-10T17:41:55.002Z,8.83
2022-10-10T17:44:21.421Z,8.80
2022-10-10T17:46:47.802Z,8.76
2022-10-10T17:49:14.189Z,8.70
2022-10-10T17:51:41.293Z,8.63
2022-10-10T17:54:07.918Z,8.57
2022-10-10T17:56:34.735Z,8.50
2022-10-10T17:59:01.908Z,8.46
2022-10-10T18:01:30.598Z,8.43
2022-10-10T18:03:57.627Z,8.35
2022-10-10T18:06:24.153Z,8.27
2022-10-10T18:08:51.311Z,8.19
2022-10-10T18:11:19.796Z,8.09
2022-10-10T18:13:46.189Z,8.02
2022-10-10T18:16:16.918Z,7.97
2022-10-10T18:18:49.627Z,7.91
2022-10-10T18:21:18.220Z,7.86
2022-10-10T18:23:44.616Z,7.85
2022-10-10T18:26:15.506Z,7.77
2022-10-10T18:28:45.341Z,7.74
2022-10-10T18:31:15.927Z,7.67
2022-10-10T18:33:44.806Z,7.57
2022-10-10T18:36:12.388Z,7.52
2022-10-10T18:38:38.798Z,7.47
2022-10-10T18:41:09.715Z,7.45
2022-10-10T18:43:36.654Z,7.45
2022-10-10T18:46:04.432Z,7.50
2022-10-10T18:48:31.325Z,7.49
2022-10-10T18:51:05.890Z,7.47
2022-10-10T18:53:42.735Z,7.44
2022-10-10T18:56:09.689Z,7.35
2022-10-10T18:58:36.602Z,7.34
2022-10-10T19:01:08.441Z,7.33
2022-10-10T19:03:35.625Z,7.34
2022-10-10T19:06:03.012Z,7.36
2022-10-10T19:08:32.009Z,7.33
2022-10-10T19:10:58.496Z,7.29
2022-10-10T19:13:24.992Z,7.24
2022-10-10T19:15:52.318Z,7.16
2022-10-10T19:18:19.253Z,7.09
2022-10-10T19:20:45.671Z,7.02
2022-10-10T19:23:14.901Z,7.00
2022-10-10T19:25:42.002Z,6.99
2022-10-10T19:28:08.692Z,7.00
2022-10-10T19:30:39.130Z,6.91
2022-10-10T19:33:05.869Z,6.86
2022-10-10T19:35:35.852Z,6.81
2022-10-10T19:38:02.262Z,6.78
2022-10-10T19:40:28.626Z,6.81
2022-10-10T19:42:54.996Z,6.79
2022-10-10T19:45:21.407Z,6.75
2022-10-10T19:47:47.782Z,6.66
2022-10-10T19:50:14.193Z,6.64
2022-10-10T19:52:40.611Z,6.63
2022-10-10T19:55:07.147Z,6.58
2022-10-10T19:57:33.504Z,6.55
2022-10-10T19:59:59.870Z,6.51
2022-10-10T20:02:26.298Z,6.47
2022-10-10T20:04:52.668Z,6.39
2022-10-10T20:07:19.064Z,6.35
2022-10-10T20:09:45.618Z,6.28
2022-10-10T20:12:11.993Z,6.26
2022-10-10T20:14:38.369Z,6.21
2022-10-10T20:17:04.771Z,6.19
2022-10-10T20:19:31.183Z,6.20
2022-10-10T20:21:57.545Z,6.25
2022-10-10T20:24:23.926Z,6.27
2022-10-10T20:26:50.318Z,6.30
2022-10-10T20:29:16.716Z,6.30
2022-10-10T20:31:43.096Z,6.26
2022-10-10T20:34:09.704Z,6.24
2022-10-10T20:36:36.618Z,6.22
2022-10-10T20:39:08.334Z,6.17
2022-10-10T20:41:35.193Z,6.12
2022-10-10T20:44:03.171Z,6.08
2022-10-10T20:46:31.829Z,6.02
2022-10-10T20:48:59.215Z,6.02
2022-10-10T20:51:26.654Z,6.01
2022-10-10T20:53:57.702Z,6.06
2022-10-10T20:56:24.577Z,6.09
2022-10-10T20:58:51.554Z,6.06
2022-10-10T21:01:19.375Z,5.97
2022-10-10T21:03:46.473Z,5.91
2022-10-10T21:06:17.098Z,5.88
2022-10-10T21:08:43.834Z,5.84
2022-10-10T21:11:11.722Z,5.86
2022-10-10T21:13:39.201Z,5.85
2022-10-10T21:16:06.734Z,5.79
2022-10-10T21:18:33.538Z,5.75
2022-10-10T21:21:00.761Z,5.74
2022-10-10T21:23:28.180Z,5.74
2022-10-10T21:25:54.578Z,5.74
2022-10-10T21:28:20.983Z,5.72
2022-10-10T21:30:51.255Z,5.70
2022-10-10T21:33:19.990Z,5.66
2022-10-10T21:35:47.184Z,5.57
2022-10-10T21:38:14.013Z,5.55
2022-10-10T21:40:40.441Z,5.55
2022-10-10T21:43:06.926Z,5.52
2022-10-10T21:45:33.973Z,5.54
2022-10-10T21:48:00.330Z,5.57
2022-10-10T21:50:27.243Z,5.53
2022-10-10T21:52:53.676Z,5.49
2022-10-10T21:55:20.370Z,5.49
2022-10-10T21:57:48.272Z,5.46
2022-10-10T22:00:14.978Z,5.40
2022-10-10T22:02:42.103Z,5.38
2022-10-10T22:05:11.264Z,5.37
2022-10-10T22:07:38.166Z,5.34
2022-10-10T22:10:05.478Z,5.32
2022-10-10T22:12:31.852Z,5.34
2022-10-10T22:14:58.400Z,5.35
2022-10-10T22:17:24.900Z,5.31
2022-10-10T22:19:51.821Z,5.29
2022-10-10T22:22:18.572Z,5.22
2022-10-10T22:24:44.954Z,5.17
2022-10-10T22:27:11.362Z,5.15
2022-10-10T22:29:37.714Z,5.15
2022-10-10T22:32:04.113Z,5.15
2022-10-10T22:34:30.560Z,5.13
2022-10-10T22:36:57.068Z,5.10
2022-10-10T22:39:23.434Z,5.08
2022-10-10T22:41:49.827Z,5.09
2022-10-10T22:44:17.786Z,5.05
2022-10-10T22:46:44.159Z,5.01
2022-10-10T22:49:10.542Z,4.99
2022-10-10T22:51:37.353Z,4.97
2022-10-10T22:54:03.900Z,5.00
2022-10-10T22:56:30.286Z,4.97
2022-10-10T22:58:56.722Z,4.94
2022-10-10T23:01:24.251Z,4.97
2022-10-10T23:03:53.722Z,4.92
2022-10-10T23:06:20.076Z,4.89
2022-10-10T23:08:46.443Z,4.89
2022-10-10T23:11:12.809Z,4.83
2022-10-10T23:13:39.210Z,4.81
2022-10-10T23:16:05.884Z,4.77
2022-10-10T23:18:32.591Z,4.69
2022-10-10T23:20:58.974Z,4.71
2022-10-10T23:23:25.694Z,4.79
2022-10-10T23:25:52.084Z,4.77
2022-10-10T23:28:18.928Z,4.74
2022-10-10T23:30:46.428Z,4.71
2022-10-10T23:33:13.031Z,4.67
2022-10-10T23:35:39.454Z,4.66
2022-10-10T23:38:06.073Z,4.60
2022-10-10T23:40:33.878Z,4.58
2022-10-10T23:43:00.279Z,4.61
2022-10-10T23:45:26.680Z,4.62
2022-10-10T23:47:53.061Z,4.60
2022-10-10T23:50:19.518Z,4.59
2022-10-10T23:52:45.886Z,4.65
2022-10-10T23:55:12.766Z,4.69
2022-10-10T23:57:39.148Z,4.70
